Time;durP1;ratioP1;P1;durP2;ratioP2;P2;SDS_P1;SDS_P2;PMS_P1;PMS_P2;Temp;Humidity;BMP_temperature;BMP_pressure;BME280_temperature;BME280_humidity;BME280_pressure;Samples;Min_cycle;Max_cycle;Signal;HPM_P1;HPM_P2
2020/12/09 00:03:22;;;;;;;18.48;5.55;;;4.30;99.90;;;;;;10483159;28;20416;-54
2020/12/09 00:08:43;;;;;;;10.15;4.05;;;4.30;99.90;;;;;;10479153;28;20398;-54
2020/12/09 00:14:05;;;;;;;12.40;4.82;;;4.30;99.90;;;;;;10481921;28;20502;-54
2020/12/09 00:19:26;;;;;;;10.98;4.25;;;4.30;99.90;;;;;;10479291;28;20036;-54
2020/12/09 00:24:47;;;;;;;7.28;3.47;;;4.20;99.90;;;;;;10488317;28;20044;-54
2020/12/09 00:30:08;;;;;;;14.43;4.82;;;4.20;99.90;;;;;;10479844;28;20032;-54
2020/12/09 00:35:29;;;;;;;12.02;4.90;;;4.30;99.90;;;;;;10475569;28;20032;-54
2020/12/09 00:40:50;;;;;;;12.82;4.55;;;4.30;99.90;;;;;;10480819;28;20152;-54
2020/12/09 00:46:22;;;;;;;11.15;4.78;;;4.30;99.90;;;;;;10469533;28;20141;-54
2020/12/09 00:51:43;;;;;;;8.75;3.88;;;4.20;99.90;;;;;;10479312;28;20047;-54
2020/12/09 00:57:04;;;;;;;12.65;4.32;;;4.20;99.90;;;;;;10478673;28;20032;-54
2020/12/09 01:02:25;;;;;;;11.15;4.28;;;4.20;99.90;;;;;;10485160;28;20067;-54
2020/12/09 01:07:46;;;;;;;15.25;4.90;;;4.20;99.90;;;;;;10465625;28;20028;-54
2020/12/09 01:13:07;;;;;;;9.93;4.20;;;4.20;99.90;;;;;;10479741;28;20094;-54
2020/12/09 01:18:28;;;;;;;10.63;4.22;;;4.20;99.90;;;;;;10476143;28;20059;-54
2020/12/09 01:23:49;;;;;;;9.90;4.28;;;4.30;99.90;;;;;;10470339;28;20129;-54
2020/12/09 01:29:10;;;;;;;9.02;4.50;;;4.10;99.90;;;;;;10475272;28;20139;-54
2020/12/09 01:34:31;;;;;;;11.85;4.97;;;4.10;99.90;;;;;;10481049;28;20137;-54
2020/12/09 01:39:53;;;;;;;11.98;4.65;;;4.10;99.90;;;;;;10472568;28;20042;-54
2020/12/09 01:45:14;;;;;;;11.38;5.05;;;4.10;99.90;;;;;;10457613;28;20063;-54
2020/12/09 01:50:35;;;;;;;9.20;4.72;;;4.10;99.90;;;;;;10481815;28;20123;-54
2020/12/09 01:55:56;;;;;;;11.35;4.97;;;4.00;99.90;;;;;;10482843;28;21147;-54
2020/12/09 02:01:19;;;;;;;11.15;5.63;;;4.00;99.90;;;;;;10475193;28;20072;-54
2020/12/09 02:06:40;;;;;;;13.45;4.85;;;3.90;99.90;;;;;;10483585;28;20043;-53
2020/12/09 02:12:01;;;;;;;14.98;5.93;;;3.90;99.90;;;;;;10478752;28;20544;-54
2020/12/09 02:17:24;;;;;;;13.73;4.68;;;3.80;99.90;;;;;;10476299;28;20044;-54
2020/12/09 02:22:52;;;;;;;9.98;4.20;;;3.70;99.90;;;;;;10478609;28;20176;-54
2020/12/09 02:28:13;;;;;;;9.70;4.93;;;3.70;99.90;;;;;;10479485;28;20506;-54
2020/12/09 02:33:34;;;;;;;9.18;5.10;;;3.50;99.90;;;;;;10481677;28;20668;-54
2020/12/09 02:38:57;;;;;;;12.63;4.65;;;3.40;99.90;;;;;;10476528;28;20116;-54
2020/12/09 02:44:18;;;;;;;9.68;4.45;;;3.30;99.90;;;;;;10476618;28;22236;-54
2020/12/09 02:49:39;;;;;;;10.80;3.53;;;3.10;99.90;;;;;;10479728;28;20044;-54
2020/12/09 02:55:00;;;;;;;7.95;3.80;;;3.10;99.90;;;;;;10479991;28;20040;-54
2020/12/09 03:00:21;;;;;;;12.63;4.13;;;3.00;99.90;;;;;;10479465;28;20033;-54
2020/12/09 03:05:41;;;;;;;9.80;3.60;;;2.90;99.90;;;;;;10479469;28;20657;-53
2020/12/09 03:11:02;;;;;;;11.13;5.30;;;2.90;99.90;;;;;;10489193;28;20099;-53
2020/12/09 03:16:23;;;;;;;6.68;3.65;;;2.80;99.90;;;;;;10484562;28;20479;-54
2020/12/09 03:21:44;;;;;;;11.13;4.95;;;2.60;99.90;;;;;;10490733;28;20047;-54
2020/12/09 03:27:05;;;;;;;7.65;3.15;;;2.50;99.90;;;;;;10490794;28;20051;-54
2020/12/09 03:32:26;;;;;;;14.10;5.13;;;2.50;99.90;;;;;;10498365;28;20085;-53
2020/12/09 03:37:47;;;;;;;10.50;4.25;;;2.50;99.90;;;;;;10491359;28;20056;-53
2020/12/09 03:43:08;;;;;;;11.30;4.50;;;2.50;99.90;;;;;;10489642;28;20079;-54
2020/12/09 03:48:29;;;;;;;14.50;4.13;;;2.40;99.90;;;;;;10488861;28;20043;-54
2020/12/09 03:53:50;;;;;;;22.75;5.78;;;2.40;99.90;;;;;;10485763;28;20051;-53
2020/12/09 03:59:11;;;;;;;9.00;4.53;;;2.40;99.90;;;;;;10490902;28;20055;-54
2020/12/09 04:04:33;;;;;;;13.82;4.68;;;2.40;99.90;;;;;;10491019;28;20062;-54
2020/12/09 04:09:54;;;;;;;9.98;3.58;;;2.40;99.90;;;;;;10483533;28;20044;-54
2020/12/09 04:15:15;;;;;;;7.47;3.55;;;2.40;99.90;;;;;;10488930;28;20032;-53
2020/12/09 04:20:36;;;;;;;11.25;3.72;;;2.10;99.90;;;;;;10476983;28;20063;-53
2020/12/09 04:25:57;;;;;;;9.98;3.35;;;2.20;99.90;;;;;;10488651;28;20032;-53
2020/12/09 04:31:18;;;;;;;7.45;2.75;;;1.90;99.90;;;;;;10477266;28;20040;-53
2020/12/09 04:36:39;;;;;;;7.25;4.07;;;2.00;99.90;;;;;;10489203;28;20134;-54
2020/12/09 04:42:00;;;;;;;8.05;3.60;;;1.70;99.90;;;;;;10479135;28;21160;-53
2020/12/09 04:47:26;;;;;;;13.10;3.05;;;1.50;99.90;;;;;;10484228;28;20040;-53
2020/12/09 04:53:18;;;;;;;7.72;3.63;;;1.40;99.90;;;;;;10494336;28;20131;-54
2020/12/09 04:58:45;;;;;;;6.43;3.30;;;1.20;99.90;;;;;;10488237;28;20032;-55
2020/12/09 05:04:12;;;;;;;8.77;3.35;;;0.60;99.90;;;;;;10474166;28;20469;-55
2020/12/09 05:09:46;;;;;;;4.72;1.90;;;0.20;99.90;;;;;;10487092;28;20036;-55
2020/12/09 05:15:15;;;;;;;12.18;2.72;;;0.30;99.90;;;;;;10489028;28;20074;-55
2020/12/09 05:20:38;;;;;;;8.70;3.05;;;0.30;99.90;;;;;;10487486;28;20115;-53
2020/12/09 05:25:59;;;;;;;5.38;2.33;;;-0.10;99.90;;;;;;10487606;28;20032;-53
2020/12/09 05:31:21;;;;;;;5.38;1.90;;;0.00;99.90;;;;;;10494413;28;20032;-53
2020/12/09 05:36:46;;;;;;;5.10;2.45;;;-0.20;99.90;;;;;;10488014;28;20379;-53
2020/12/09 05:42:17;;;;;;;5.32;2.47;;;-0.10;99.90;;;;;;10490151;28;20155;-53
2020/12/09 05:47:38;;;;;;;8.85;2.95;;;0.00;99.90;;;;;;10482852;28;20063;-53
2020/12/09 05:53:15;;;;;;;6.38;2.08;;;0.00;99.90;;;;;;10480658;28;20032;-53
2020/12/09 05:58:45;;;;;;;7.00;3.03;;;0.10;99.90;;;;;;10491335;28;20043;-53
2020/12/09 06:04:06;;;;;;;6.57;2.83;;;0.10;99.90;;;;;;10484813;28;20062;-53
2020/12/09 06:09:27;;;;;;;6.30;2.22;;;0.20;99.90;;;;;;10484615;28;20064;-53
2020/12/09 06:14:48;;;;;;;4.00;2.58;;;0.00;99.90;;;;;;10488312;28;20036;-54
2020/12/09 06:20:09;;;;;;;9.40;3.22;;;0.00;99.90;;;;;;10487838;28;20077;-54
2020/12/09 06:25:30;;;;;;;9.40;3.67;;;0.20;99.90;;;;;;10487297;28;20869;-54
2020/12/09 06:30:53;;;;;;;9.82;3.13;;;0.10;99.90;;;;;;10489727;28;20044;-55
2020/12/09 06:36:27;;;;;;;6.45;2.10;;;0.10;99.90;;;;;;10480346;28;20044;-56
2020/12/09 06:41:55;;;;;;;8.23;2.92;;;0.10;99.90;;;;;;10490659;28;20059;-55
2020/12/09 06:47:17;;;;;;;3.10;2.08;;;-0.10;99.90;;;;;;10493425;28;20044;-56
2020/12/09 06:52:38;;;;;;;11.25;3.03;;;-0.10;99.90;;;;;;10493067;28;20044;-56
2020/12/09 06:58:21;;;;;;;6.70;2.75;;;-0.10;99.90;;;;;;10491990;28;20648;-56
2020/12/09 07:03:51;;;;;;;7.22;2.05;;;-0.10;99.90;;;;;;10496321;28;20123;-56
2020/12/09 07:09:12;;;;;;;7.65;2.58;;;0.00;99.90;;;;;;10496476;28;20127;-53
2020/12/09 07:14:50;;;;;;;10.80;2.83;;;-0.30;99.90;;;;;;10496998;28;20131;-54
2020/12/09 07:20:11;;;;;;;8.77;3.17;;;-0.40;99.90;;;;;;10496018;28;20417;-53
2020/12/09 07:25:33;;;;;;;6.88;3.25;;;-0.40;99.90;;;;;;10497386;28;20044;-54
2020/12/09 07:31:03;;;;;;;8.57;2.72;;;-0.30;99.90;;;;;;10495979;28;20036;-53
2020/12/09 07:36:24;;;;;;;5.70;2.13;;;-0.20;99.90;;;;;;10495944;28;20059;-53
2020/12/09 07:41:46;;;;;;;7.18;3.97;;;-0.20;99.90;;;;;;10494246;28;20476;-54
2020/12/09 07:47:07;;;;;;;7.30;3.40;;;-0.20;99.90;;;;;;10497048;28;20039;-53
2020/12/09 07:52:28;;;;;;;8.32;4.50;;;-0.10;99.90;;;;;;10498218;28;20055;-54
2020/12/09 07:57:49;;;;;;;5.53;2.47;;;-0.30;99.90;;;;;;10509827;28;20105;-53
2020/12/09 08:03:24;;;;;;;7.82;3.70;;;-0.50;99.90;;;;;;10512937;28;20044;-53
2020/12/09 08:08:46;;;;;;;8.30;3.15;;;-0.20;99.90;;;;;;10520763;28;20044;-53
2020/12/09 08:14:07;;;;;;;12.10;4.78;;;-0.10;99.90;;;;;;10524815;28;20095;-54
2020/12/09 08:19:28;;;;;;;9.73;3.65;;;-0.10;99.90;;;;;;10524403;28;20036;-54
2020/12/09 08:25:08;;;;;;;5.70;2.97;;;-0.30;99.90;;;;;;10525011;28;20135;-53
2020/12/09 08:30:29;;;;;;;9.45;4.88;;;-0.30;99.90;;;;;;10527217;28;20032;-53
2020/12/09 08:36:06;;;;;;;12.27;3.30;;;-0.20;99.90;;;;;;10518082;28;20120;-53
2020/12/09 08:41:30;;;;;;;13.27;3.97;;;-0.20;99.90;;;;;;10520387;28;20480;-53
2020/12/09 08:46:51;;;;;;;10.88;3.60;;;-0.40;99.90;;;;;;10525125;28;20040;-53
2020/12/09 08:52:12;;;;;;;12.88;4.10;;;-0.50;99.90;;;;;;10521105;28;20061;-53
2020/12/09 08:57:33;;;;;;;10.57;3.42;;;-0.50;99.90;;;;;;10506148;28;20028;-53
2020/12/09 09:02:56;;;;;;;8.93;3.13;;;-0.20;99.90;;;;;;10524291;28;20493;-53
2020/12/09 09:08:17;;;;;;;18.88;7.05;;;-0.30;99.90;;;;;;10516465;28;20040;-55
2020/12/09 09:13:39;;;;;;;8.00;4.68;;;-0.10;99.90;;;;;;10522383;28;20050;-55
2020/12/09 09:19:00;;;;;;;35.45;8.02;;;0.00;99.90;;;;;;10521313;28;20028;-54
2020/12/09 09:24:20;;;;;;;20.20;6.38;;;0.00;99.90;;;;;;10513506;28;20048;-55
2020/12/09 09:29:41;;;;;;;15.40;4.63;;;0.00;99.90;;;;;;10521434;28;20032;-55
2020/12/09 09:35:03;;;;;;;10.60;4.05;;;-0.20;99.90;;;;;;10515497;28;20024;-54
2020/12/09 09:40:24;;;;;;;7.32;2.63;;;-0.20;99.90;;;;;;10525255;28;20035;-55
2020/12/09 09:45:47;;;;;;;13.20;4.10;;;0.00;99.90;;;;;;10520163;28;20055;-52
2020/12/09 09:51:08;;;;;;;7.10;3.60;;;-0.20;99.90;;;;;;10516205;28;20202;-52
2020/12/09 09:56:29;;;;;;;16.17;4.15;;;-0.20;99.90;;;;;;10523811;28;20040;-53
2020/12/09 10:01:53;;;;;;;11.48;5.00;;;-0.20;99.90;;;;;;10523938;28;20047;-52
2020/12/09 10:07:14;;;;;;;12.88;4.97;;;-0.20;99.90;;;;;;10499864;28;20652;-52
2020/12/09 10:12:35;;;;;;;8.07;3.08;;;0.00;99.90;;;;;;10502003;28;20041;-53
2020/12/09 10:17:56;;;;;;;10.60;2.97;;;0.10;99.90;;;;;;10508135;28;20032;-53
2020/12/09 10:23:18;;;;;;;13.15;4.00;;;0.20;99.90;;;;;;10517521;28;20045;-53
2020/12/09 10:28:38;;;;;;;12.27;3.38;;;0.30;99.90;;;;;;10521005;28;20047;-52
2020/12/09 10:34:01;;;;;;;8.52;2.65;;;0.30;99.90;;;;;;10522883;28;20039;-52
2020/12/09 10:39:24;;;;;;;9.02;2.78;;;0.40;99.90;;;;;;10517451;28;20036;-53
2020/12/09 10:44:45;;;;;;;10.10;3.13;;;0.50;99.90;;;;;;10493985;28;20119;-53
2020/12/09 10:50:06;;;;;;;6.20;2.30;;;0.50;99.90;;;;;;10496010;28;20630;-53
2020/12/09 10:55:28;;;;;;;16.55;4.32;;;0.60;99.90;;;;;;10516966;28;20123;-53
2020/12/09 11:00:49;;;;;;;16.35;4.40;;;0.50;99.90;;;;;;10520681;28;20054;-53
2020/12/09 11:06:10;;;;;;;11.27;3.40;;;0.50;99.90;;;;;;10514106;28;20031;-56
2020/12/09 11:11:32;;;;;;;8.93;2.67;;;0.50;99.90;;;;;;10507565;28;20048;-56
2020/12/09 11:16:53;;;;;;;12.98;3.05;;;0.50;99.90;;;;;;10511719;28;20040;-56
2020/12/09 11:22:14;;;;;;;13.77;4.70;;;0.60;99.90;;;;;;10515341;28;20036;-56
2020/12/09 11:27:35;;;;;;;14.25;3.90;;;0.90;99.90;;;;;;10520728;28;20397;-56
2020/12/09 11:32:56;;;;;;;10.68;2.95;;;0.90;99.90;;;;;;10521650;28;20392;-56
2020/12/09 11:38:17;;;;;;;10.70;4.28;;;0.80;99.90;;;;;;10501690;28;20114;-56
2020/12/09 11:43:38;;;;;;;14.45;4.95;;;0.90;99.90;;;;;;10491683;28;20059;-56
2020/12/09 11:48:59;;;;;;;12.52;5.10;;;1.00;99.90;;;;;;10525055;28;20552;-56
2020/12/09 11:54:19;;;;;;;20.33;3.83;;;1.10;99.90;;;;;;10499215;28;20135;-56
2020/12/09 11:59:40;;;;;;;16.70;2.95;;;1.20;99.90;;;;;;10522485;28;20035;-56
2020/12/09 12:05:03;;;;;;;13.85;4.32;;;1.20;99.90;;;;;;10525922;28;20040;-56
2020/12/09 12:10:24;;;;;;;13.05;4.18;;;1.20;99.90;;;;;;10527352;28;20636;-56
2020/12/09 12:15:45;;;;;;;11.93;3.35;;;1.20;99.90;;;;;;10505366;28;20037;-56
2020/12/09 12:21:06;;;;;;;25.40;5.10;;;1.20;99.90;;;;;;10519783;28;20032;-56
2020/12/09 12:26:27;;;;;;;24.13;4.93;;;1.20;99.90;;;;;;10505953;28;20036;-56
2020/12/09 12:31:48;;;;;;;13.68;4.72;;;1.30;99.90;;;;;;10526423;28;20036;-56
2020/12/09 12:37:09;;;;;;;21.48;5.70;;;1.40;99.90;;;;;;10520945;28;20380;-55
2020/12/09 12:42:30;;;;;;;16.75;5.60;;;1.20;99.90;;;;;;10524625;28;20032;-55
2020/12/09 12:47:51;;;;;;;10.77;3.72;;;1.20;99.90;;;;;;10524731;28;20036;-55
2020/12/09 12:53:12;;;;;;;21.88;5.68;;;1.30;99.90;;;;;;10515730;28;20040;-55
2020/12/09 12:58:33;;;;;;;10.75;4.97;;;1.30;99.90;;;;;;10511029;28;20032;-53
2020/12/09 13:03:54;;;;;;;23.60;6.55;;;1.20;99.90;;;;;;10519538;28;20297;-53
2020/12/09 13:09:15;;;;;;;15.25;4.05;;;1.20;99.90;;;;;;10519165;28;20081;-53
2020/12/09 13:14:36;;;;;;;28.95;6.00;;;1.20;99.90;;;;;;10517429;28;20036;-53
2020/12/09 13:19:57;;;;;;;15.00;3.15;;;1.20;99.90;;;;;;10520871;28;20036;-54
2020/12/09 13:25:18;;;;;;;12.75;4.18;;;1.30;99.90;;;;;;10519433;28;20059;-54
2020/12/09 13:30:39;;;;;;;24.90;6.00;;;1.30;99.90;;;;;;10518541;28;20046;-53
2020/12/09 13:36:00;;;;;;;16.70;4.63;;;1.20;99.90;;;;;;10506985;28;20124;-53
2020/12/09 13:41:22;;;;;;;12.60;4.72;;;1.20;99.90;;;;;;10491023;28;20081;-53
2020/12/09 13:46:43;;;;;;;19.60;5.03;;;1.20;99.90;;;;;;10516102;28;20033;-53
2020/12/09 13:52:04;;;;;;;19.17;3.75;;;1.20;99.90;;;;;;10514805;28;20036;-52
2020/12/09 13:57:25;;;;;;;18.77;5.95;;;1.20;99.90;;;;;;10513452;28;20047;-53
2020/12/09 14:02:47;;;;;;;15.95;3.40;;;1.30;99.90;;;;;;10509689;28;20028;-55
2020/12/09 14:08:07;;;;;;;15.93;2.97;;;1.30;99.90;;;;;;10497001;28;20392;-55
2020/12/09 14:13:28;;;;;;;15.15;4.00;;;1.30;99.90;;;;;;10510815;28;20046;-55
2020/12/09 14:18:50;;;;;;;19.52;5.00;;;1.40;99.90;;;;;;10507600;28;20041;-55
2020/12/09 14:24:13;;;;;;;20.95;4.03;;;1.30;99.90;;;;;;10503651;28;20045;-55
2020/12/09 14:29:35;;;;;;;14.07;3.65;;;1.30;99.90;;;;;;10506572;28;20434;-55
2020/12/09 14:34:56;;;;;;;12.10;3.67;;;1.40;99.90;;;;;;10485641;28;20305;-55
2020/12/09 14:40:19;;;;;;;20.30;3.90;;;1.40;99.90;;;;;;10489995;28;20063;-55
2020/12/09 14:45:40;;;;;;;14.10;5.88;;;1.40;99.90;;;;;;10489607;28;20060;-55
2020/12/09 14:51:02;;;;;;;23.20;5.18;;;1.40;99.90;;;;;;10490866;28;20484;-55
2020/12/09 14:56:23;;;;;;;18.77;4.05;;;1.40;99.90;;;;;;10497390;28;20108;-55
2020/12/09 15:01:44;;;;;;;16.52;4.78;;;1.40;99.90;;;;;;10492566;28;20044;-55
2020/12/09 15:07:05;;;;;;;9.15;3.88;;;1.50;99.90;;;;;;10480321;28;20477;-55
2020/12/09 15:12:26;;;;;;;34.25;4.35;;;1.50;99.90;;;;;;10503045;28;20095;-55
2020/12/09 15:17:47;;;;;;;18.92;3.60;;;1.50;99.90;;;;;;10501668;28;20063;-55
2020/12/09 15:23:08;;;;;;;25.60;5.03;;;1.50;99.90;;;;;;10495754;28;20044;-56
2020/12/09 15:28:30;;;;;;;9.20;2.90;;;1.50;99.90;;;;;;10512586;28;20400;-55
2020/12/09 15:33:50;;;;;;;12.68;4.72;;;1.60;99.90;;;;;;10501547;28;20680;-55
2020/12/09 15:39:11;;;;;;;18.40;3.05;;;1.60;99.90;;;;;;10494114;28;20152;-55
2020/12/09 15:44:33;;;;;;;26.45;6.22;;;1.60;99.90;;;;;;10498275;28;20126;-55
2020/12/09 15:49:54;;;;;;;14.75;3.53;;;1.70;99.90;;;;;;10497624;28;20416;-55
2020/12/09 15:55:15;;;;;;;12.65;3.38;;;1.70;99.90;;;;;;10498679;28;20036;-55
2020/12/09 16:00:36;;;;;;;15.52;4.20;;;1.80;99.90;;;;;;10500702;28;20043;-55
2020/12/09 16:05:57;;;;;;;10.32;3.63;;;1.90;99.90;;;;;;10497036;28;20469;-55
2020/12/09 16:11:18;;;;;;;17.38;4.22;;;1.80;99.90;;;;;;10498500;28;20057;-55
2020/12/09 16:16:39;;;;;;;15.23;4.53;;;1.90;99.90;;;;;;10492520;28;20040;-55
2020/12/09 16:22:00;;;;;;;12.55;3.25;;;1.90;99.90;;;;;;10499446;28;20488;-55
2020/12/09 16:27:21;;;;;;;18.95;4.13;;;1.90;99.90;;;;;;10507907;28;20043;-55
2020/12/09 16:32:46;;;;;;;12.75;4.13;;;1.90;99.90;;;;;;10511083;28;20557;-55
2020/12/09 16:38:07;;;;;;;13.90;4.53;;;1.90;99.90;;;;;;10499193;28;20467;-55
2020/12/09 16:43:28;;;;;;;12.05;4.13;;;1.80;99.90;;;;;;10497515;28;20043;-55
2020/12/09 16:48:49;;;;;;;11.02;4.53;;;1.80;99.90;;;;;;10499132;28;20040;-55
2020/12/09 16:54:11;;;;;;;17.77;3.83;;;1.80;99.90;;;;;;10496225;28;20079;-55
2020/12/09 16:59:32;;;;;;;21.85;5.32;;;1.90;99.90;;;;;;10501011;28;20044;-55
2020/12/09 17:04:53;;;;;;;15.25;3.60;;;1.90;99.90;;;;;;10491972;28;20045;-55
2020/12/09 17:10:14;;;;;;;19.35;3.90;;;1.90;99.90;;;;;;10491374;28;20042;-55
2020/12/09 17:15:37;;;;;;;10.48;4.03;;;1.90;99.90;;;;;;10478927;28;20123;-55
2020/12/09 17:20:58;;;;;;;17.30;2.97;;;1.90;99.90;;;;;;10492569;28;20041;-55
2020/12/09 17:26:20;;;;;;;13.95;4.70;;;2.00;99.90;;;;;;10487734;28;20101;-56
2020/12/09 17:31:42;;;;;;;15.43;2.90;;;2.00;99.90;;;;;;10496885;28;20029;-55
2020/12/09 17:37:03;;;;;;;20.25;4.05;;;2.10;99.90;;;;;;10472677;28;20044;-55
2020/12/09 17:42:24;;;;;;;12.35;3.22;;;2.20;99.90;;;;;;10479470;28;20046;-55
2020/12/09 17:47:45;;;;;;;14.27;3.72;;;2.20;99.90;;;;;;10474673;28;20095;-56
2020/12/09 17:53:06;;;;;;;13.02;3.70;;;2.20;99.90;;;;;;10481818;28;20036;-55
2020/12/09 17:58:27;;;;;;;13.63;3.72;;;2.30;99.90;;;;;;10477792;28;20027;-56
2020/12/09 18:03:48;;;;;;;21.17;6.78;;;2.30;99.90;;;;;;10478231;28;20072;-55
2020/12/09 18:09:09;;;;;;;18.90;4.95;;;2.30;99.90;;;;;;10485239;28;20044;-55
2020/12/09 18:14:30;;;;;;;16.75;4.13;;;2.40;99.90;;;;;;10481114;28;20043;-55
2020/12/09 18:19:51;;;;;;;13.93;4.88;;;2.40;99.90;;;;;;10488506;28;20049;-55
2020/12/09 18:25:12;;;;;;;12.50;2.47;;;2.40;99.90;;;;;;10502102;28;20144;-55
2020/12/09 18:30:33;;;;;;;18.80;5.70;;;2.40;99.90;;;;;;10498158;28;20454;-55
2020/12/09 18:35:53;;;;;;;29.50;5.35;;;2.40;99.90;;;;;;10484011;28;20032;-55
2020/12/09 18:41:15;;;;;;;15.15;4.85;;;2.50;99.90;;;;;;10484734;28;20070;-56
2020/12/09 18:46:36;;;;;;;20.33;4.97;;;2.50;99.90;;;;;;10486973;28;20037;-56
2020/12/09 18:51:57;;;;;;;22.55;5.57;;;2.60;99.90;;;;;;10485880;28;20097;-56
2020/12/09 18:57:18;;;;;;;20.52;4.05;;;2.60;99.90;;;;;;10486430;28;20788;-56
2020/12/09 19:02:43;;;;;;;13.18;4.47;;;2.70;99.90;;;;;;10482765;28;20045;-55
2020/12/09 19:08:04;;;;;;;13.77;4.15;;;2.60;99.90;;;;;;10476228;28;20028;-56
2020/12/09 19:13:26;;;;;;;25.90;5.47;;;2.60;99.90;;;;;;10493441;28;20475;-56
2020/12/09 19:18:48;;;;;;;19.80;3.92;;;2.70;99.90;;;;;;10486775;28;20051;-53
2020/12/09 19:24:12;;;;;;;18.65;4.35;;;2.70;99.90;;;;;;10491885;28;20226;-54
2020/12/09 19:29:33;;;;;;;26.80;4.28;;;2.70;99.90;;;;;;10474070;28;20114;-54
2020/12/09 19:34:54;;;;;;;18.80;5.57;;;2.80;99.90;;;;;;10484992;28;20033;-53
2020/12/09 19:40:15;;;;;;;10.45;4.22;;;2.70;99.90;;;;;;10485055;28;20047;-53
2020/12/09 19:45:36;;;;;;;18.70;6.45;;;2.80;99.90;;;;;;10484848;28;20040;-53
2020/12/09 19:50:57;;;;;;;16.95;4.75;;;2.90;99.90;;;;;;10493231;28;20092;-53
2020/12/09 19:56:25;;;;;;;16.83;4.85;;;2.90;99.90;;;;;;10503231;28;20043;-53
2020/12/09 20:01:47;;;;;;;14.53;3.90;;;2.90;99.90;;;;;;10497943;28;20044;-53
2020/12/09 20:07:08;;;;;;;16.67;5.50;;;3.00;99.90;;;;;;10496380;28;20041;-53
2020/12/09 20:12:29;;;;;;;28.35;4.90;;;3.10;99.90;;;;;;10493980;28;20054;-53
2020/12/09 20:17:50;;;;;;;23.17;6.05;;;3.10;99.90;;;;;;10476495;28;20036;-51
2020/12/09 20:23:15;;;;;;;18.13;4.82;;;3.20;99.90;;;;;;10490110;28;20043;-51
2020/12/09 20:28:36;;;;;;;9.20;3.60;;;3.20;99.90;;;;;;10489342;28;20044;-51
2020/12/09 20:33:57;;;;;;;13.00;4.95;;;3.20;99.90;;;;;;10496217;28;20081;-51
2020/12/09 20:39:18;;;;;;;14.13;4.78;;;3.20;99.90;;;;;;10492988;28;20529;-51
2020/12/09 20:44:39;;;;;;;20.25;5.47;;;3.20;99.90;;;;;;10492253;28;20044;-51
2020/12/09 20:50:00;;;;;;;13.18;3.80;;;3.30;99.90;;;;;;10482290;28;20123;-51
2020/12/09 20:55:21;;;;;;;12.20;4.28;;;3.30;99.90;;;;;;10483500;28;20044;-51
2020/12/09 21:00:42;;;;;;;10.82;3.70;;;3.30;99.90;;;;;;10471400;28;20056;-51
2020/12/09 21:06:08;;;;;;;20.95;4.40;;;3.40;99.90;;;;;;10483127;28;20587;-51
2020/12/09 21:11:29;;;;;;;19.85;6.35;;;3.40;99.90;;;;;;10481461;28;20037;-51
2020/12/09 21:16:53;;;;;;;8.82;3.38;;;3.40;99.90;;;;;;10466812;28;20046;-51
2020/12/09 21:22:14;;;;;;;15.77;4.88;;;3.40;99.90;;;;;;10492356;28;20057;-51
2020/12/09 21:27:35;;;;;;;10.90;4.03;;;3.40;99.90;;;;;;10480818;28;20120;-51
2020/12/09 21:32:56;;;;;;;13.45;5.15;;;3.50;99.90;;;;;;10486636;28;20123;-51
2020/12/09 21:38:17;;;;;;;5.32;2.58;;;3.50;99.90;;;;;;10479237;28;20036;-52
2020/12/09 21:43:38;;;;;;;8.77;4.20;;;3.50;99.90;;;;;;10487249;28;20051;-52
2020/12/09 21:48:59;;;;;;;12.77;5.13;;;3.60;99.90;;;;;;10484494;28;20052;-51
2020/12/09 21:54:23;;;;;;;7.72;3.67;;;3.60;99.90;;;;;;10481512;28;20102;-51
2020/12/09 21:59:45;;;;;;;13.15;3.17;;;3.60;99.90;;;;;;10480329;28;20028;-51
2020/12/09 22:05:07;;;;;;;16.25;5.40;;;3.60;99.90;;;;;;10494841;28;20415;-51
2020/12/09 22:10:28;;;;;;;16.80;3.67;;;3.60;99.90;;;;;;10495310;28;20032;-51
2020/12/09 22:15:49;;;;;;;12.43;5.00;;;3.60;99.90;;;;;;10492512;28;20448;-51
2020/12/09 22:21:12;;;;;;;12.75;5.07;;;3.70;99.90;;;;;;10492255;28;20064;-52
2020/12/09 22:26:33;;;;;;;11.18;4.63;;;3.70;99.90;;;;;;10492288;28;20044;-51
2020/12/09 22:31:54;;;;;;;10.90;3.03;;;3.70;99.90;;;;;;10486056;28;20029;-51
2020/12/09 22:37:14;;;;;;;12.75;4.57;;;3.70;99.90;;;;;;10487394;28;20039;-51
2020/12/09 22:42:36;;;;;;;13.98;5.13;;;3.70;99.90;;;;;;10488749;28;20040;-52
2020/12/09 22:47:57;;;;;;;11.10;4.47;;;3.60;99.90;;;;;;10473002;28;20458;-51
2020/12/09 22:53:18;;;;;;;12.65;5.07;;;3.70;99.90;;;;;;10496050;28;20044;-52
2020/12/09 22:58:40;;;;;;;11.95;4.80;;;3.70;99.90;;;;;;10493707;28;20064;-51
2020/12/09 23:04:01;;;;;;;17.00;5.15;;;3.70;99.90;;;;;;10487400;28;20593;-51
2020/12/09 23:09:23;;;;;;;14.55;3.47;;;3.70;99.90;;;;;;10477664;28;20067;-52
2020/12/09 23:14:44;;;;;;;8.50;2.90;;;3.70;99.90;;;;;;10474425;28;20044;-51
2020/12/09 23:20:07;;;;;;;15.80;4.03;;;3.70;99.90;;;;;;10472013;28;20040;-51
2020/12/09 23:25:28;;;;;;;12.50;5.25;;;3.80;99.90;;;;;;10481561;28;20044;-52
2020/12/09 23:30:49;;;;;;;11.93;4.53;;;3.80;99.90;;;;;;10499078;28;20058;-51
2020/12/09 23:36:10;;;;;;;11.18;4.85;;;3.80;99.90;;;;;;10497302;28;20044;-51
2020/12/09 23:41:31;;;;;;;12.70;4.72;;;3.70;99.90;;;;;;10496996;28;20746;-51
2020/12/09 23:46:53;;;;;;;13.70;5.05;;;3.70;99.90;;;;;;10492537;28;20036;-51
2020/12/09 23:52:14;;;;;;;15.68;4.68;;;3.80;99.90;;;;;;10495095;28;20518;-51
2020/12/09 23:57:35;;;;;;;15.07;3.55;;;3.70;99.90;;;;;;10487868;28;20456;-51
